Time;durP1;ratioP1;P1;durP2;ratioP2;P2;SDS_P1;SDS_P2;PMS_P1;PMS_P2;Temp;Humidity;BMP_temperature;BMP_pressure;BME280_temperature;BME280_humidity;BME280_pressure;Samples;Min_cycle;Max_cycle;Signal;HPM_P1;HPM_P2
2021/03/07 16:42:00;;;;;;;16.67;2.95;;;3.40;99.90;;;;;;4929717;23;19996;-79
2021/03/07 16:44:22;;;;;;;21.08;2.83;;;3.40;99.90;;;;;;4813718;28;20509;-80
2021/03/07 16:46:46;;;;;;;7.78;2.72;;;3.30;99.90;;;;;;4812993;28;20108;-79
2021/03/07 16:49:08;;;;;;;8.48;2.60;;;3.30;99.90;;;;;;4804604;28;20097;-79
2021/03/07 16:51:31;;;;;;;12.63;2.35;;;3.20;99.90;;;;;;4812772;28;20447;-80
2021/03/07 16:53:53;;;;;;;6.65;2.03;;;3.30;99.90;;;;;;4813033;28;20097;-81
2021/03/07 16:56:16;;;;;;;2.95;1.30;;;3.20;99.90;;;;;;4810034;28;20108;-81
2021/03/07 16:58:39;;;;;;;12.68;2.20;;;3.20;99.90;;;;;;4812856;28;20101;-80
2021/03/07 17:01:02;;;;;;;10.40;2.08;;;3.20;99.90;;;;;;4813346;28;20132;-80
2021/03/07 17:03:24;;;;;;;7.78;2.53;;;3.10;99.90;;;;;;4812800;28;20097;-82
2021/03/07 17:05:47;;;;;;;5.80;1.70;;;3.10;99.90;;;;;;4813015;28;20096;-82
2021/03/07 17:08:09;;;;;;;9.07;2.17;;;3.10;99.90;;;;;;4813989;28;20571;-81
2021/03/07 17:10:32;;;;;;;5.72;1.98;;;3.00;99.90;;;;;;4814484;28;20459;-79
2021/03/07 17:12:54;;;;;;;6.05;1.73;;;3.10;99.90;;;;;;4814191;28;20101;-81
2021/03/07 17:15:18;;;;;;;9.85;1.70;;;3.10;99.90;;;;;;4815476;28;20108;-80
2021/03/07 17:17:41;;;;;;;10.32;2.10;;;3.10;99.90;;;;;;4814754;28;20104;-79
2021/03/07 17:20:05;;;;;;;5.53;2.00;;;3.00;99.90;;;;;;4815057;28;24068;-80
2021/03/07 17:22:28;;;;;;;5.20;2.05;;;3.00;99.90;;;;;;4813871;28;20156;-78
2021/03/07 17:24:50;;;;;;;18.50;2.50;;;3.00;99.90;;;;;;4814090;28;20123;-79
2021/03/07 17:27:14;;;;;;;9.68;2.28;;;2.90;99.90;;;;;;4815559;28;20089;-81
2021/03/07 17:29:36;;;;;;;14.75;3.03;;;;;;;;;;4812151;28;21764;-82
2021/03/07 17:32:00;;;;;;;20.08;2.67;;;2.80;99.90;;;;;;4813425;28;20499;-83
2021/03/07 17:34:23;;;;;;;11.10;2.20;;;;;;;;;;4813993;28;20171;-79
2021/03/07 17:36:46;;;;;;;10.02;2.03;;;2.80;99.90;;;;;;4814464;28;20487;-80
2021/03/07 17:39:09;;;;;;;5.80;1.77;;;2.80;99.90;;;;;;4814414;28;20093;-79
2021/03/07 17:41:32;;;;;;;9.02;2.42;;;2.80;99.90;;;;;;4814494;28;20093;-83
2021/03/07 17:43:55;;;;;;;6.15;1.80;;;2.70;99.90;;;;;;4800915;28;20101;-80
2021/03/07 17:46:17;;;;;;;6.47;1.42;;;2.70;99.90;;;;;;4817987;28;20096;-82
2021/03/07 17:48:41;;;;;;;15.93;2.20;;;2.70;99.90;;;;;;4812777;28;20100;-80
2021/03/07 17:51:05;;;;;;;5.70;1.58;;;2.70;99.90;;;;;;4811713;28;20092;-79
2021/03/07 17:53:27;;;;;;;6.03;1.95;;;2.70;99.90;;;;;;4796351;28;20127;-79
2021/03/07 17:55:50;;;;;;;11.52;1.90;;;2.60;99.90;;;;;;4804430;28;20089;-80
2021/03/07 17:58:13;;;;;;;4.95;1.65;;;2.60;99.90;;;;;;4801183;28;20156;-79
2021/03/07 18:00:36;;;;;;;6.15;1.92;;;2.50;99.90;;;;;;4820329;28;20490;-83
2021/03/07 18:02:58;;;;;;;7.10;2.13;;;2.40;99.90;;;;;;4814169;28;20100;-79
2021/03/07 18:05:23;;;;;;;5.55;1.70;;;2.10;99.90;;;;;;4812786;28;20112;-79
2021/03/07 18:07:45;;;;;;;12.48;2.15;;;1.90;99.90;;;;;;4812215;28;20148;-78
2021/03/07 18:10:10;;;;;;;13.75;2.25;;;1.80;99.90;;;;;;4804227;28;20554;-82
2021/03/07 18:12:32;;;;;;;9.70;1.85;;;1.70;99.90;;;;;;4807925;28;20096;-82
2021/03/07 18:14:55;;;;;;;9.20;1.98;;;1.60;99.90;;;;;;4821429;28;20097;-80
2021/03/07 18:17:17;;;;;;;5.43;1.67;;;1.40;99.90;;;;;;4812666;28;20089;-82
2021/03/07 18:19:40;;;;;;;9.85;1.88;;;1.40;99.90;;;;;;4811181;28;20100;-79
2021/03/07 18:22:04;;;;;;;9.48;1.73;;;1.40;99.90;;;;;;4812462;28;20104;-81
2021/03/07 18:24:26;;;;;;;7.95;1.67;;;1.40;99.90;;;;;;4809963;28;20545;-80
2021/03/07 18:26:52;;;;;;;4.85;1.48;;;1.30;99.90;;;;;;4812185;28;20095;-79
2021/03/07 18:29:14;;;;;;;7.88;1.63;;;1.30;99.90;;;;;;4812120;28;20094;-79
2021/03/07 18:31:37;;;;;;;5.13;1.05;;;1.20;99.90;;;;;;4807206;28;20523;-79
2021/03/07 18:34:00;;;;;;;4.47;1.25;;;1.10;99.90;;;;;;4815867;28;20094;-79
2021/03/07 18:36:22;;;;;;;9.93;1.17;;;1.10;99.90;;;;;;4811434;28;20098;-79
2021/03/07 18:38:46;;;;;;;3.85;1.20;;;1.00;99.90;;;;;;4812095;28;20093;-81
2021/03/07 18:41:09;;;;;;;5.00;1.20;;;1.00;99.90;;;;;;4813985;28;20088;-79
2021/03/07 18:43:32;;;;;;;5.85;1.42;;;0.90;99.90;;;;;;4812282;28;20543;-80
2021/03/07 18:45:54;;;;;;;15.27;1.55;;;0.70;99.90;;;;;;4813638;28;20085;-80
2021/03/07 18:48:17;;;;;;;5.35;1.25;;;0.60;99.90;;;;;;4812015;28;20091;-79
2021/03/07 18:50:39;;;;;;;1.98;0.90;;;0.60;99.90;;;;;;4802699;28;20098;-81
2021/03/07 18:53:02;;;;;;;5.88;1.20;;;0.60;99.90;;;;;;4812335;28;20410;-80
2021/03/07 18:55:26;;;;;;;7.78;1.00;;;;;;;;;;4811407;28;20107;-80
2021/03/07 18:57:48;;;;;;;12.15;1.33;;;0.50;99.90;;;;;;4802849;28;20108;-78
2021/03/07 19:00:16;;;;;;;12.35;1.10;;;0.50;99.90;;;;;;4811769;28;20098;-80
2021/03/07 19:03:10;;;;;;;2.33;0.85;;;0.40;99.90;;;;;;4768984;28;20096;-79
2021/03/07 19:05:34;;;;;;;1.65;0.70;;;0.40;99.90;;;;;;4756262;28;20153;-79
2021/03/07 19:07:57;;;;;;;3.47;1.10;;;0.40;99.90;;;;;;4772359;28;20148;-79
2021/03/07 19:10:22;;;;;;;2.60;0.75;;;0.30;99.90;;;;;;4773967;28;20562;-80
2021/03/07 19:12:47;;;;;;;1.42;0.82;;;0.30;99.90;;;;;;4777096;28;20164;-79
2021/03/07 19:15:41;;;;;;;2.22;0.70;;;0.30;99.90;;;;;;4751319;28;20111;-80
2021/03/07 19:18:21;;;;;;;6.18;0.95;;;0.30;99.90;;;;;;4761730;28;20103;-81
2021/03/07 19:20:54;;;;;;;4.20;1.08;;;0.30;99.90;;;;;;4780596;28;20106;-79
2021/03/07 19:23:25;;;;;;;1.25;0.90;;;0.20;99.90;;;;;;4765312;28;20092;-81
2021/03/07 19:25:56;;;;;;;5.63;0.77;;;0.20;99.90;;;;;;4766780;28;20088;-79
2021/03/07 19:32:04;;;;;;;6.45;1.08;;;0.20;99.90;;;;;;4765207;28;20177;-81
2021/03/07 19:34:33;;;;;;;4.03;1.52;;;0.20;99.90;;;;;;4763858;28;20096;-79
2021/03/07 19:36:59;;;;;;;6.47;0.90;;;0.10;99.90;;;;;;4773619;28;20135;-79
2021/03/07 19:39:33;;;;;;;8.05;1.50;;;0.00;99.90;;;;;;4771774;28;20299;-79
2021/03/07 19:42:37;;;;;;;15.00;1.23;;;0.00;99.90;;;;;;4751804;28;20539;-81
2021/03/07 19:45:01;;;;;;;2.78;0.82;;;0.00;99.90;;;;;;4751933;28;20461;-79
2021/03/07 19:47:27;;;;;;;1.02;0.50;;;-0.10;99.90;;;;;;4783193;28;20168;-79
2021/03/07 19:49:51;;;;;;;2.58;0.77;;;-0.10;99.90;;;;;;4770616;28;20113;-80
2021/03/07 19:52:32;;;;;;;9.68;1.48;;;-0.10;99.90;;;;;;4788060;28;20457;-80
2021/03/07 19:54:55;;;;;;;4.28;0.70;;;-0.20;99.90;;;;;;4763303;28;20241;-79
2021/03/07 19:57:52;;;;;;;4.03;1.15;;;-0.40;99.90;;;;;;4768640;28;20089;-78
2021/03/07 20:00:17;;;;;;;3.08;1.08;;;;;;;;;;4748439;28;21687;-80
2021/03/07 20:02:57;;;;;;;2.42;0.60;;;-0.60;99.90;;;;;;4763137;28;20179;-79
2021/03/07 20:11:26;;;;;;;3.45;1.10;;;-0.70;99.90;;;;;;4746434;28;20102;-78
2021/03/07 20:14:01;;;;;;;2.55;0.80;;;-0.70;99.90;;;;;;4769618;28;20096;-81
2021/03/07 20:16:28;;;;;;;1.25;0.55;;;-0.70;99.90;;;;;;4758445;28;20179;-79
2021/03/07 20:18:53;;;;;;;8.88;1.02;;;-0.60;99.90;;;;;;4754995;28;20109;-78
2021/03/07 20:21:46;;;;;;;2.65;0.95;;;-0.60;99.90;;;;;;4758141;28;20093;-79
2021/03/07 20:24:13;;;;;;;1.73;0.68;;;-0.50;99.90;;;;;;4756090;28;20099;-80
2021/03/07 20:26:43;;;;;;;2.85;0.85;;;-0.50;99.90;;;;;;4754830;28;20099;-79
2021/03/07 20:29:07;;;;;;;5.55;0.70;;;-0.60;99.90;;;;;;4813437;28;20487;-78
2021/03/07 20:31:30;;;;;;;0.88;0.52;;;-0.70;99.90;;;;;;4814280;28;20091;-81
2021/03/07 20:33:55;;;;;;;6.90;1.00;;;-0.60;99.90;;;;;;4815031;28;20106;-81
2021/03/07 20:36:18;;;;;;;8.52;0.70;;;-0.60;99.90;;;;;;4813418;28;20101;-82
2021/03/07 20:38:40;;;;;;;6.47;0.82;;;-0.60;99.90;;;;;;4815225;28;20093;-78
2021/03/07 20:41:03;;;;;;;7.00;0.73;;;-0.70;99.90;;;;;;4814819;28;20103;-81
2021/03/07 20:43:28;;;;;;;7.18;0.88;;;-0.80;99.90;;;;;;4813703;28;20111;-78
2021/03/07 20:45:50;;;;;;;2.13;0.63;;;-0.90;99.90;;;;;;4806303;28;20089;-80
2021/03/07 20:48:14;;;;;;;7.40;0.60;;;-0.80;99.90;;;;;;4812271;28;20090;-80
2021/03/07 20:50:36;;;;;;;3.50;0.70;;;-0.90;99.90;;;;;;4811204;28;20462;-80
2021/03/07 20:52:59;;;;;;;8.30;0.60;;;-0.80;99.90;;;;;;4813255;28;20104;-78
2021/03/07 20:55:21;;;;;;;2.45;0.82;;;-0.80;99.90;;;;;;4811868;28;20122;-81
2021/03/07 20:57:44;;;;;;;3.13;0.95;;;-0.90;99.90;;;;;;4813004;28;20177;-79
2021/03/07 21:00:10;;;;;;;4.82;0.65;;;-0.90;99.90;;;;;;4811492;28;20542;-79
2021/03/07 21:02:33;;;;;;;10.70;0.73;;;-1.00;99.90;;;;;;4809733;28;20099;-78
2021/03/07 21:04:56;;;;;;;2.45;0.85;;;-1.10;99.90;;;;;;4812129;28;20102;-78
2021/03/07 21:07:18;;;;;;;0.57;0.55;;;-1.10;99.90;;;;;;4803272;28;20121;-80
2021/03/07 21:09:42;;;;;;;0.85;0.60;;;-1.20;99.90;;;;;;4812793;28;20093;-78
2021/03/07 21:12:07;;;;;;;1.42;0.57;;;-1.30;99.90;;;;;;4811534;28;20083;-78
2021/03/07 21:14:30;;;;;;;1.92;0.50;;;-1.20;99.90;;;;;;4811226;28;20209;-78
2021/03/07 21:16:53;;;;;;;5.13;0.85;;;-1.30;99.90;;;;;;4811376;28;20099;-82
2021/03/07 21:19:15;;;;;;;5.80;0.73;;;-1.40;99.90;;;;;;4812535;28;20100;-79
2021/03/07 21:21:39;;;;;;;3.33;0.57;;;-1.40;99.90;;;;;;4813213;28;20504;-79
2021/03/07 21:24:02;;;;;;;5.35;0.60;;;-1.40;99.90;;;;;;4808898;28;20096;-81
2021/03/07 21:26:27;;;;;;;2.80;0.65;;;-1.50;99.90;;;;;;4812136;28;20143;-80
2021/03/07 21:28:49;;;;;;;1.30;0.57;;;-1.50;99.90;;;;;;4812438;28;20090;-79
2021/03/07 21:31:12;;;;;;;10.32;1.00;;;-1.50;99.90;;;;;;4813781;28;20100;-80
2021/03/07 21:33:35;;;;;;;1.95;0.93;;;-1.40;99.90;;;;;;4811002;28;20589;-81
2021/03/07 21:35:57;;;;;;;2.80;0.50;;;-1.40;99.90;;;;;;4812433;28;20111;-80
2021/03/07 21:38:21;;;;;;;1.80;0.60;;;-1.50;99.90;;;;;;4812897;28;20538;-78
2021/03/07 21:40:43;;;;;;;6.10;0.60;;;-1.50;99.90;;;;;;4813229;28;20100;-79
2021/03/07 21:43:09;;;;;;;6.93;0.47;;;-1.50;99.90;;;;;;4810136;28;20640;-78
2021/03/07 21:45:34;;;;;;;6.93;0.85;;;-1.50;99.90;;;;;;4811399;28;20102;-80
2021/03/07 21:47:56;;;;;;;8.57;0.85;;;-1.50;99.90;;;;;;4811294;28;20562;-80
2021/03/07 21:50:25;;;;;;;2.72;1.02;;;-1.10;99.90;;;;;;4813855;28;20097;-79
2021/03/07 21:52:49;;;;;;;3.05;0.77;;;-1.00;99.90;;;;;;4801896;28;20089;-80
2021/03/07 21:55:12;;;;;;;2.97;0.60;;;-0.90;99.90;;;;;;4812758;28;20617;-81
2021/03/07 21:57:35;;;;;;;3.20;0.77;;;-0.80;99.90;;;;;;4811511;28;20097;-80
2021/03/07 21:59:57;;;;;;;7.38;1.42;;;-0.80;99.90;;;;;;4811258;28;20103;-81
2021/03/07 22:02:20;;;;;;;9.18;1.05;;;-0.90;99.90;;;;;;4813648;28;20110;-79
2021/03/07 22:04:42;;;;;;;1.27;0.45;;;-1.00;99.90;;;;;;4811337;28;20516;-79
2021/03/07 22:07:05;;;;;;;2.00;0.60;;;-1.10;99.90;;;;;;4811485;28;20091;-79
2021/03/07 22:09:27;;;;;;;4.07;0.80;;;-1.10;99.90;;;;;;4810965;28;20121;-79
2021/03/07 22:11:51;;;;;;;3.08;0.57;;;-1.00;99.90;;;;;;4812095;28;20114;-79
2021/03/07 22:14:13;;;;;;;7.05;0.70;;;-1.10;99.90;;;;;;4810066;28;20096;-81
2021/03/07 22:16:36;;;;;;;3.28;0.57;;;-1.20;99.90;;;;;;4812020;28;20105;-80
2021/03/07 22:18:58;;;;;;;4.50;0.77;;;-1.20;99.90;;;;;;4810122;28;20103;-83
2021/03/07 22:21:21;;;;;;;5.35;0.60;;;-1.20;99.90;;;;;;4807660;28;20098;-84
2021/03/07 22:23:43;;;;;;;2.13;0.70;;;-1.30;99.90;;;;;;4795624;28;20108;-83
2021/03/07 22:26:08;;;;;;;9.73;0.55;;;-1.40;99.90;;;;;;4812059;28;20085;-81
2021/03/07 22:28:31;;;;;;;3.83;0.98;;;-1.40;99.90;;;;;;4811043;28;20102;-84
2021/03/07 22:30:54;;;;;;;3.90;0.60;;;;;;;;;;4810871;28;20722;-81
2021/03/07 22:33:16;;;;;;;4.13;1.00;;;-1.30;99.90;;;;;;4811162;28;20144;-81
2021/03/07 22:35:41;;;;;;;2.33;0.50;;;-1.40;99.90;;;;;;4811461;28;20097;-80
2021/03/07 22:38:03;;;;;;;2.93;0.60;;;-1.60;99.90;;;;;;4811976;28;20097;-79
2021/03/07 22:40:26;;;;;;;7.95;0.73;;;-1.50;99.90;;;;;;4812859;28;20146;-82
2021/03/07 22:42:48;;;;;;;1.40;0.60;;;-1.50;99.90;;;;;;4810905;28;20534;-81
2021/03/07 22:45:13;;;;;;;3.92;0.40;;;-1.50;99.90;;;;;;4810723;28;20152;-82
2021/03/07 22:47:35;;;;;;;16.02;0.65;;;-1.60;99.90;;;;;;4810689;28;20099;-81
2021/03/07 22:49:58;;;;;;;2.70;0.40;;;-1.60;99.90;;;;;;4811111;28;20121;-82
2021/03/07 22:52:20;;;;;;;3.63;0.60;;;-1.60;99.90;;;;;;4810787;28;20087;-84
2021/03/07 22:54:43;;;;;;;2.92;0.77;;;-1.60;99.90;;;;;;4811256;28;20101;-82
2021/03/07 22:57:06;;;;;;;5.88;0.60;;;-1.60;99.90;;;;;;4811635;28;20097;-81
2021/03/07 22:59:29;;;;;;;4.93;0.98;;;-1.50;99.90;;;;;;4810955;28;20122;-82
2021/03/07 23:01:54;;;;;;;6.68;0.70;;;-1.50;99.90;;;;;;4809784;28;20454;-82
2021/03/07 23:04:16;;;;;;;6.38;0.60;;;-1.50;99.90;;;;;;4809674;28;20420;-83
2021/03/07 23:06:39;;;;;;;3.15;0.60;;;-1.40;99.90;;;;;;4810166;28;20182;-81
2021/03/07 23:09:02;;;;;;;0.82;0.43;;;-1.40;99.90;;;;;;4811213;28;20097;-82
2021/03/07 23:11:24;;;;;;;1.52;0.40;;;-1.40;99.90;;;;;;4800827;28;20119;-80
2021/03/07 23:13:47;;;;;;;2.33;0.60;;;-1.40;99.90;;;;;;4800921;28;20177;-81
2021/03/07 23:16:10;;;;;;;9.35;0.90;;;-1.50;99.90;;;;;;4810015;28;20111;-80
2021/03/07 23:18:34;;;;;;;6.40;0.70;;;-1.70;99.90;;;;;;4810659;28;20098;-80
2021/03/07 23:20:57;;;;;;;2.95;0.60;;;-1.70;99.90;;;;;;4809678;28;20469;-80
2021/03/07 23:23:20;;;;;;;3.25;0.32;;;-1.70;99.90;;;;;;4804129;28;20109;-79
2021/03/07 23:25:43;;;;;;;5.05;0.50;;;-1.80;99.90;;;;;;4809793;28;20576;-81
2021/03/07 23:28:07;;;;;;;0.98;0.30;;;-1.90;99.90;;;;;;4812691;28;20444;-79
2021/03/07 23:30:33;;;;;;;3.20;0.60;;;-1.90;99.90;;;;;;4810071;28;20096;-81
2021/03/07 23:32:55;;;;;;;2.88;0.50;;;-1.90;99.90;;;;;;4810493;28;20586;-81
2021/03/07 23:35:22;;;;;;;1.40;0.57;;;-1.90;99.90;;;;;;4808776;28;20098;-79
2021/03/07 23:37:46;;;;;;;2.15;0.40;;;-2.00;99.90;;;;;;4804971;28;20090;-81
2021/03/07 23:40:11;;;;;;;2.33;0.60;;;-2.00;99.90;;;;;;4810204;28;20169;-82
2021/03/07 23:42:33;;;;;;;7.85;0.82;;;-2.00;99.90;;;;;;4803056;28;20101;-81
2021/03/07 23:44:55;;;;;;;2.67;0.38;;;-2.00;99.90;;;;;;4811353;28;20095;-79
2021/03/07 23:47:18;;;;;;;5.70;0.55;;;-2.00;99.90;;;;;;4810416;28;20100;-81
2021/03/07 23:49:40;;;;;;;1.70;0.35;;;-2.10;99.90;;;;;;4811903;28;20093;-81
2021/03/07 23:52:04;;;;;;;6.70;0.82;;;-2.20;99.90;;;;;;4810449;28;20091;-79
2021/03/07 23:54:27;;;;;;;6.00;0.80;;;-2.20;99.90;;;;;;4812114;28;20110;-80
2021/03/07 23:56:50;;;;;;;8.40;0.88;;;-2.30;99.90;;;;;;4810161;28;20096;-79
2021/03/07 23:59:12;;;;;;;1.10;0.40;;;-2.30;99.90;;;;;;4813077;28;20110;-80
